Decoded Metar for KMOT (MINOT in ND, USA) (IATA:MOT) | Meteo·Mobile Aviation Weather
aviador You're here:

KMOT Decoded Metar

MINOT in ND, USA
Report Time2018-10-22 12:54:00
UTC Time2018-10-22 13:53:00
Flight Rules vfr VFR
Wind280° at 12 kt
W.Decomp.*RWY 26: 11.8 kt HW 2.1 kt RCW
RWY 31: 9.2 kt HW 7.7 kt LCW
W.Rank280° ranks 4
Current wind is below 280° avg. (12.7)
Visibility9999 m
Phenomena:N/A
Clouds:N/A
Expected CloudBase > 2,400 ft AGL from Temp-Dew spread
CeilingNone
Temp02°C (ISA -10)
Dew Point-4°C (65% RH)
AAT-4.8°C
QNH1021 hPa
Density Alt335 ft
Elevation1,703 ft
Report Wrong Elevation
Raw Report
KMOT 221254Z 28012KT 10SM CLR 02/M04 A3015 RMK AO2 SLP225
T00221044=

Extra information for KMOT:More info

Metar Taf Metar & Taf Last 4 Metars F.Rules Stats Wind Profile Meteogram Temp Stats Airport Information Weather charts Add Link Nearby VenuesMetar ALERT Operation Metar Decoded Social comments

AIRNAV info for KMOT